createdAt,value
2017-10-21T00:01:50.135Z,99042
2017-10-21T00:04:18.235Z,99040
2017-10-21T00:06:47.096Z,99047
2017-10-21T00:09:15.204Z,99047
2017-10-21T00:11:44.055Z,99043
2017-10-21T00:14:12.143Z,99041
2017-10-21T00:16:40.224Z,99052
2017-10-21T00:19:08.306Z,99051
2017-10-21T00:21:36.389Z,99059
2017-10-21T00:24:05.264Z,99052
2017-10-21T00:26:33.339Z,99060
2017-10-21T00:29:01.415Z,99044
2017-10-21T00:31:29.488Z,99050
2017-10-21T00:33:57.575Z,99036
2017-10-21T00:36:26.433Z,99032
2017-10-21T00:38:54.524Z,99044
2017-10-21T00:41:22.607Z,99052
2017-10-21T00:43:51.466Z,99041
2017-10-21T00:46:19.552Z,99029
2017-10-21T00:48:47.631Z,99041
2017-10-21T00:51:15.705Z,99041
2017-10-21T00:53:43.796Z,99053
2017-10-21T00:56:12.728Z,99040
2017-10-21T00:58:40.827Z,99047
2017-10-21T01:01:08.909Z,99037
2017-10-21T01:03:36.995Z,99036
2017-10-21T01:06:05.831Z,99050
2017-10-21T01:08:34.687Z,99050
2017-10-21T01:11:03.537Z,99043
2017-10-21T01:13:31.621Z,99031
2017-10-21T01:15:59.697Z,99036
2017-10-21T01:18:27.994Z,99029
2017-10-21T01:20:56.837Z,99024
2017-10-21T01:23:24.915Z,99033
2017-10-21T01:25:52.996Z,99023
2017-10-21T01:28:21.068Z,99015
2017-10-21T01:30:49.153Z,99026
2017-10-21T01:33:17.228Z,99028
2017-10-21T01:35:45.315Z,99014
2017-10-21T01:38:13.395Z,99020
2017-10-21T01:40:42.243Z,99020
2017-10-21T01:43:10.337Z,99017
2017-10-21T01:45:38.415Z,99020
2017-10-21T01:48:06.484Z,99028
2017-10-21T01:50:34.564Z,99010
2017-10-21T01:53:02.652Z,99016
2017-10-21T01:55:31.512Z,99026
2017-10-21T01:57:59.588Z,99012
2017-10-21T02:00:27.684Z,99024
2017-10-21T02:02:56.527Z,99018
2017-10-21T02:05:25.375Z,99020
2017-10-21T02:07:54.215Z,99022
2017-10-21T02:10:22.300Z,99026
2017-10-21T02:12:50.372Z,99017
2017-10-21T02:15:18.454Z,99016
2017-10-21T02:17:46.525Z,99033
2017-10-21T02:20:14.612Z,99027
2017-10-21T02:22:42.695Z,99011
2017-10-21T02:25:11.549Z,99017
2017-10-21T02:27:39.619Z,99005
2017-10-21T02:30:07.712Z,99012
2017-10-21T02:32:35.787Z,99013
2017-10-21T02:35:03.860Z,99006
2017-10-21T02:37:31.932Z,99016
2017-10-21T02:40:00.020Z,99018
2017-10-21T02:42:28.872Z,99015
2017-10-21T02:44:56.952Z,99025
2017-10-21T02:47:25.039Z,99003
2017-10-21T02:49:53.112Z,99002
2017-10-21T02:52:21.196Z,99006
2017-10-21T02:54:50.047Z,98998
2017-10-21T02:57:18.121Z,99007
2017-10-21T02:59:46.209Z,99000
2017-10-21T03:02:14.292Z,98999
2017-10-21T03:04:42.363Z,99007
2017-10-21T03:07:10.447Z,99000
2017-10-21T03:09:38.527Z,99006
2017-10-21T03:12:07.380Z,99005
2017-10-21T03:14:35.468Z,99005
2017-10-21T03:17:03.536Z,98997
2017-10-21T03:19:31.628Z,99002
2017-10-21T03:21:59.704Z,99006
2017-10-21T03:24:28.551Z,98991
2017-10-21T03:26:56.620Z,99000
2017-10-21T03:29:24.708Z,98988
2017-10-21T03:31:52.779Z,98981
2017-10-21T03:34:20.864Z,98987
2017-10-21T03:36:48.932Z,98989
2017-10-21T03:39:17.007Z,98997
2017-10-21T03:41:45.080Z,98996
2017-10-21T03:44:13.161Z,98996
2017-10-21T03:46:41.235Z,98988
2017-10-21T03:49:09.317Z,98996
2017-10-21T03:51:37.389Z,98994
2017-10-21T03:54:06.299Z,98999
2017-10-21T03:56:35.141Z,98987
2017-10-21T03:59:03.223Z,98982
2017-10-21T04:01:31.312Z,98977
2017-10-21T04:03:59.371Z,98988
2017-10-21T04:06:27.459Z,98980
2017-10-21T04:08:56.316Z,98980
2017-10-21T04:11:24.420Z,98977
2017-10-21T04:13:52.496Z,98978
2017-10-21T04:16:21.352Z,98968
2017-10-21T04:18:49.428Z,98972
2017-10-21T04:21:17.512Z,98977
2017-10-21T04:23:45.596Z,98968
2017-10-21T04:26:13.680Z,98971
2017-10-21T04:28:42.532Z,98972
2017-10-21T04:31:10.623Z,98975
2017-10-21T04:33:38.696Z,98978
2017-10-21T04:36:06.781Z,98977
2017-10-21T04:38:34.855Z,98977
2017-10-21T04:41:02.950Z,98976
2017-10-21T04:43:31.785Z,98985
2017-10-21T04:45:59.893Z,98979
2017-10-21T04:48:27.969Z,98973
2017-10-21T04:50:56.824Z,98974
2017-10-21T04:53:24.896Z,98971
2017-10-21T04:55:52.972Z,98974
2017-10-21T04:58:21.051Z,98970
2017-10-21T05:00:49.142Z,98979
2017-10-21T05:03:17.215Z,98987
2017-10-21T05:05:45.304Z,98987
2017-10-21T05:08:14.144Z,98988
2017-10-21T05:10:42.221Z,98981
2017-10-21T05:13:10.309Z,98979
2017-10-21T05:15:38.391Z,98984
2017-10-21T05:18:06.465Z,98979
2017-10-21T05:20:34.557Z,98975
2017-10-21T05:23:03.407Z,98974
2017-10-21T05:25:31.492Z,98971
2017-10-21T05:27:59.564Z,98972
2017-10-21T05:30:27.649Z,98978
2017-10-21T05:32:55.721Z,98978
2017-10-21T05:35:23.796Z,98979
2017-10-21T05:37:51.879Z,98979
2017-10-21T05:40:20.732Z,98979
2017-10-21T05:42:48.804Z,98986
2017-10-21T05:45:16.908Z,98987
2017-10-21T05:47:44.980Z,98984
2017-10-21T05:50:13.059Z,98988
2017-10-21T05:52:41.908Z,98982
2017-10-21T05:55:09.992Z,98982
2017-10-21T05:57:38.076Z,98981
2017-10-21T06:00:06.170Z,98980
2017-10-21T06:02:35.631Z,98982
2017-10-21T06:05:03.778Z,98969
2017-10-21T06:07:31.845Z,98976
2017-10-21T06:09:59.934Z,98976
2017-10-21T06:12:28.015Z,98977
2017-10-21T06:14:56.097Z,98981
2017-10-21T06:17:24.178Z,98983
2017-10-21T06:19:52.282Z,98978
2017-10-21T06:22:21.127Z,98983
2017-10-21T06:24:49.221Z,98989
2017-10-21T06:27:17.302Z,98992
2017-10-21T06:29:45.384Z,98988
2017-10-21T06:32:13.468Z,98986
2017-10-21T06:34:42.335Z,98988
2017-10-21T06:37:10.436Z,98988
2017-10-21T06:39:39.281Z,98988
2017-10-21T06:42:07.391Z,98987
2017-10-21T06:44:36.252Z,98990
2017-10-21T06:47:04.343Z,98991
2017-10-21T06:49:32.416Z,98986
2017-10-21T06:52:00.500Z,98989
2017-10-21T06:54:29.344Z,98994
2017-10-21T06:56:57.427Z,98989
2017-10-21T06:59:25.522Z,98988
2017-10-21T07:01:53.603Z,98991
2017-10-21T07:04:22.436Z,98992
2017-10-21T07:06:50.524Z,98994
2017-10-21T07:09:18.592Z,98989
2017-10-21T07:11:46.679Z,98991
2017-10-21T07:14:14.753Z,98983
2017-10-21T07:16:42.852Z,98980
2017-10-21T07:19:10.928Z,98984
2017-10-21T07:21:39.009Z,98993
2017-10-21T07:24:07.864Z,98984
2017-10-21T07:26:35.946Z,98985
2017-10-21T07:29:04.024Z,98990
2017-10-21T07:31:32.104Z,98993
2017-10-21T07:34:00.199Z,98988
2017-10-21T07:36:29.058Z,98990
2017-10-21T07:38:57.139Z,98994
2017-10-21T07:41:25.228Z,98990
2017-10-21T07:43:54.072Z,98993
2017-10-21T07:46:22.164Z,98986
2017-10-21T07:48:50.249Z,98990
2017-10-21T07:51:18.334Z,98990
2017-10-21T07:53:47.188Z,98980
2017-10-21T07:56:15.284Z,98991
2017-10-21T07:58:43.360Z,98995
2017-10-21T08:01:11.457Z,98998
2017-10-21T08:03:40.295Z,98990
2017-10-21T08:06:08.391Z,98987
2017-10-21T08:08:36.473Z,98984
2017-10-21T08:11:04.569Z,98982
2017-10-21T08:13:32.670Z,98984
2017-10-21T08:16:00.763Z,98984
2017-10-21T08:18:28.841Z,98975
2017-10-21T08:20:57.009Z,98970
2017-10-21T08:23:25.085Z,98971
2017-10-21T08:25:53.164Z,98968
2017-10-21T08:28:21.241Z,98966
2017-10-21T08:30:49.318Z,98968
2017-10-21T08:33:17.397Z,98961
2017-10-21T08:35:45.484Z,98958
2017-10-21T08:38:14.321Z,98955
2017-10-21T08:40:42.408Z,98945
2017-10-21T08:43:10.506Z,98949
2017-10-21T08:45:38.628Z,98944
2017-10-21T08:48:06.714Z,98943
2017-10-21T08:50:34.817Z,98945
2017-10-21T08:53:02.899Z,98945
2017-10-21T08:55:30.980Z,98934
2017-10-21T08:57:59.060Z,98950
2017-10-21T09:00:27.926Z,98945
2017-10-21T09:02:56.024Z,98944
2017-10-21T09:05:24.874Z,98949
2017-10-21T09:07:52.969Z,98947
2017-10-21T09:10:21.057Z,98940
2017-10-21T09:12:49.912Z,98932
2017-10-21T09:15:18.020Z,98944
2017-10-21T09:17:47.109Z,98956
2017-10-21T09:20:15.189Z,98944
2017-10-21T09:22:44.057Z,98948
2017-10-21T09:25:12.145Z,98939
2017-10-21T09:27:40.228Z,98938
2017-10-21T09:30:09.082Z,98942
2017-10-21T09:32:37.145Z,98937
2017-10-21T09:35:05.232Z,98929
2017-10-21T09:37:33.324Z,98931
2017-10-21T09:40:02.174Z,98928
2017-10-21T09:42:30.251Z,98930
2017-10-21T09:44:58.328Z,98928
2017-10-21T09:47:26.402Z,98924
2017-10-21T09:49:54.472Z,98931
2017-10-21T09:52:22.544Z,98930
2017-10-21T09:54:50.616Z,98934
2017-10-21T09:57:18.713Z,98934
2017-10-21T09:59:46.792Z,98927
2017-10-21T10:02:14.888Z,98923
2017-10-21T10:04:43.780Z,98924
2017-10-21T10:07:12.616Z,98925
2017-10-21T10:09:40.691Z,98928
2017-10-21T10:12:08.766Z,98922
2017-10-21T10:14:36.837Z,98910
2017-10-21T10:17:04.906Z,98916
2017-10-21T10:19:32.985Z,98917
2017-10-21T10:22:01.050Z,98919
2017-10-21T10:24:29.133Z,98913
2017-10-21T10:26:57.192Z,98915
2017-10-21T10:29:25.270Z,98912
2017-10-21T10:31:53.365Z,98903
2017-10-21T10:34:21.461Z,98903
2017-10-21T10:36:50.296Z,98900
2017-10-21T10:39:18.359Z,98899
2017-10-21T10:41:46.441Z,98902
2017-10-21T10:44:14.519Z,98896
2017-10-21T10:46:42.595Z,98898
2017-10-21T10:49:10.668Z,98879
2017-10-21T10:51:38.755Z,98887
2017-10-21T10:54:06.829Z,98882
2017-10-21T10:56:34.912Z,98886
2017-10-21T10:59:02.971Z,98883
2017-10-21T11:01:31.044Z,98879
2017-10-21T11:03:59.115Z,98874
2017-10-21T11:06:27.200Z,98865
2017-10-21T11:08:55.265Z,98868
2017-10-21T11:11:23.372Z,98861
2017-10-21T11:13:52.208Z,98865
2017-10-21T11:16:20.280Z,98863
2017-10-21T11:18:48.364Z,98854
2017-10-21T11:21:16.444Z,98859
2017-10-21T11:23:44.517Z,98861
2017-10-21T11:26:12.588Z,98855
2017-10-21T11:28:40.678Z,98854
2017-10-21T11:31:08.761Z,98846
2017-10-21T11:33:37.620Z,98847
2017-10-21T11:36:05.685Z,98840
2017-10-21T11:38:33.759Z,98841
2017-10-21T11:41:01.835Z,98839
2017-10-21T11:43:29.970Z,98837
2017-10-21T11:45:58.036Z,98835
2017-10-21T11:48:26.121Z,98838
2017-10-21T11:50:54.970Z,98835
2017-10-21T11:53:23.056Z,98833
2017-10-21T11:55:51.913Z,98833
2017-10-21T11:58:19.997Z,98826
2017-10-21T12:00:48.100Z,98823
2017-10-21T12:03:16.163Z,98824
2017-10-21T12:05:45.018Z,98825
2017-10-21T12:08:13.109Z,98822
2017-10-21T12:10:41.200Z,98810
2017-10-21T12:13:10.072Z,98812
2017-10-21T12:15:38.155Z,98806
2017-10-21T12:18:07.000Z,98816
2017-10-21T12:20:35.100Z,98801
2017-10-21T12:23:03.181Z,98795
2017-10-21T12:25:31.300Z,98799
2017-10-21T12:27:59.436Z,98791
2017-10-21T12:30:28.308Z,98788
2017-10-21T12:32:56.399Z,98784
2017-10-21T12:35:25.306Z,98782
2017-10-21T12:37:54.172Z,98783
2017-10-21T12:40:22.278Z,98780
2017-10-21T12:42:50.382Z,98783
2017-10-21T12:45:18.476Z,98778
2017-10-21T12:47:46.575Z,98776
2017-10-21T12:50:14.640Z,98767
2017-10-21T12:52:42.809Z,98764
2017-10-21T12:55:12.624Z,98764
2017-10-21T12:57:40.721Z,98758
2017-10-21T13:00:09.567Z,98766
2017-10-21T13:02:37.640Z,98768
2017-10-21T13:05:05.732Z,98764
2017-10-21T13:07:33.808Z,98768
2017-10-21T13:10:01.888Z,98762
2017-10-21T13:12:29.961Z,98765
2017-10-21T13:14:58.048Z,98771
2017-10-21T13:17:26.893Z,98769
2017-10-21T13:19:54.975Z,98776
2017-10-21T13:22:23.048Z,98766
2017-10-21T13:24:51.133Z,98768
2017-10-21T13:27:19.191Z,98765
2017-10-21T13:29:47.315Z,98755
2017-10-21T13:32:15.401Z,98764
2017-10-21T13:34:43.480Z,98768
2017-10-21T13:37:11.549Z,98762
2017-10-21T13:39:39.624Z,98769
2017-10-21T13:42:07.724Z,98768
2017-10-21T13:44:35.803Z,98770
2017-10-21T13:47:03.902Z,98765
2017-10-21T13:49:32.739Z,98774
2017-10-21T13:52:01.580Z,98765
2017-10-21T13:54:30.423Z,98773
2017-10-21T13:56:58.502Z,98774
2017-10-21T13:59:26.581Z,98777
2017-10-21T14:01:54.688Z,98772
2017-10-21T14:04:23.567Z,98778
2017-10-21T14:06:51.651Z,98772
2017-10-21T14:09:19.732Z,98774
2017-10-21T14:11:48.577Z,98770
2017-10-21T14:14:16.665Z,98774
2017-10-21T14:16:44.736Z,98767
2017-10-21T14:19:12.813Z,98762
2017-10-21T14:21:40.884Z,98758
2017-10-21T14:24:08.964Z,98758
2017-10-21T14:26:37.038Z,98758
2017-10-21T14:29:05.104Z,98747
2017-10-21T14:31:33.168Z,98748
2017-10-21T14:34:01.267Z,98750
2017-10-21T14:36:30.108Z,98752
2017-10-21T14:38:58.177Z,98746
2017-10-21T14:41:26.256Z,98746
2017-10-21T14:43:54.342Z,98734
2017-10-21T14:46:22.420Z,98741
2017-10-21T14:48:50.489Z,98741
2017-10-21T14:51:18.626Z,98749
2017-10-21T14:53:46.684Z,98747
2017-10-21T14:56:15.533Z,98741
2017-10-21T14:58:43.607Z,98742
2017-10-21T15:01:11.681Z,98735
2017-10-21T15:03:39.768Z,98734
2017-10-21T15:06:07.845Z,98727
2017-10-21T15:08:35.904Z,98733
2017-10-21T15:11:04.006Z,98729
2017-10-21T15:13:32.864Z,98731
2017-10-21T15:16:00.952Z,98730
2017-10-21T15:18:29.822Z,98738
2017-10-21T15:20:57.905Z,98740
2017-10-21T15:23:25.997Z,98741
2017-10-21T15:25:54.851Z,98742
2017-10-21T15:28:22.948Z,98743
2017-10-21T15:30:51.814Z,98745
2017-10-21T15:33:19.897Z,98741
2017-10-21T15:35:47.985Z,98739
2017-10-21T15:38:16.464Z,98745
2017-10-21T15:40:44.540Z,98751
2017-10-21T15:43:12.673Z,98738
2017-10-21T15:45:40.766Z,98746
2017-10-21T15:48:08.857Z,98750
2017-10-21T15:50:37.722Z,98748
2017-10-21T15:53:05.805Z,98741
2017-10-21T15:55:33.893Z,98733
2017-10-21T15:58:01.985Z,98734
2017-10-21T16:00:30.856Z,98726
2017-10-21T16:02:59.742Z,98740
2017-10-21T16:05:27.829Z,98741
2017-10-21T16:07:56.678Z,98729
2017-10-21T16:10:24.782Z,98735
2017-10-21T16:12:52.861Z,98736
2017-10-21T16:15:20.939Z,98734
2017-10-21T16:17:49.797Z,98736
2017-10-21T16:20:17.911Z,98745
2017-10-21T16:22:46.757Z,98746
2017-10-21T16:25:14.851Z,98755
2017-10-21T16:27:42.936Z,98761
2017-10-21T16:30:11.027Z,98758
2017-10-21T16:32:39.869Z,98754
2017-10-21T16:35:07.972Z,98744
2017-10-21T16:37:36.061Z,98741
2017-10-21T16:40:04.938Z,98743
2017-10-21T16:42:33.816Z,98739
2017-10-21T16:45:02.201Z,98734
2017-10-21T16:47:30.289Z,98737
2017-10-21T16:49:59.141Z,98740
2017-10-21T16:52:27.241Z,98749
2017-10-21T16:54:55.334Z,98739
2017-10-21T16:57:24.212Z,98742
2017-10-21T16:59:52.292Z,98732
2017-10-21T17:02:21.156Z,98715
2017-10-21T17:04:49.242Z,98721
2017-10-21T17:07:17.340Z,98730
2017-10-21T17:09:46.180Z,98731
2017-10-21T17:12:14.264Z,98732
2017-10-21T17:14:42.460Z,98723
2017-10-21T17:17:11.341Z,98721
2017-10-21T17:19:39.437Z,98716
2017-10-21T17:22:08.289Z,98727
2017-10-21T17:24:36.385Z,98725
2017-10-21T17:27:04.477Z,98732
2017-10-21T17:29:33.345Z,98729
2017-10-21T17:32:02.196Z,98732
2017-10-21T17:34:30.528Z,98726
2017-10-21T17:36:59.391Z,98723
2017-10-21T17:39:27.480Z,98723
2017-10-21T17:41:55.561Z,98718
2017-10-21T17:44:24.426Z,98709
2017-10-21T17:46:52.525Z,98717
2017-10-21T17:49:21.389Z,98721
2017-10-21T17:51:49.499Z,98718
2017-10-21T17:54:18.357Z,98717
2017-10-21T17:56:46.481Z,98716
2017-10-21T17:59:14.581Z,98725
2017-10-21T18:01:42.693Z,98720
2017-10-21T18:04:10.765Z,98710
2017-10-21T18:06:38.864Z,98716
2017-10-21T18:09:06.954Z,98724
2017-10-21T18:11:35.077Z,98723
2017-10-21T18:14:03.177Z,98712
2017-10-21T18:16:32.033Z,98725
2017-10-21T18:19:00.113Z,98720
2017-10-21T18:21:28.205Z,98714
2017-10-21T18:23:57.052Z,98712
2017-10-21T18:26:25.149Z,98720
2017-10-21T18:28:53.231Z,98717
2017-10-21T18:31:21.337Z,98719
2017-10-21T18:33:49.433Z,98720
2017-10-21T18:36:17.544Z,98720
2017-10-21T18:38:45.625Z,98722
2017-10-21T18:41:14.476Z,98727
2017-10-21T18:43:42.594Z,98729
2017-10-21T18:46:11.449Z,98721
2017-10-21T18:48:39.535Z,98724
2017-10-21T18:51:07.616Z,98716
2017-10-21T18:53:35.709Z,98723
2017-10-21T18:56:04.557Z,98717
2017-10-21T18:58:32.673Z,98719
2017-10-21T19:01:01.517Z,98719
2017-10-21T19:03:29.603Z,98723
2017-10-21T19:05:57.703Z,98716
2017-10-21T19:08:25.776Z,98714
2017-10-21T19:10:54.640Z,98717
2017-10-21T19:13:22.740Z,98709
2017-10-21T19:15:51.609Z,98721
2017-10-21T19:18:19.695Z,98719
2017-10-21T19:20:47.791Z,98738
2017-10-21T19:23:16.637Z,98734
2017-10-21T19:25:44.749Z,98735
2017-10-21T19:28:13.604Z,98745
2017-10-21T19:30:41.677Z,98748
2017-10-21T19:33:09.761Z,98759
2017-10-21T19:35:37.844Z,98765
2017-10-21T19:38:06.725Z,98765
2017-10-21T19:40:34.821Z,98785
2017-10-21T19:43:03.665Z,98777
2017-10-21T19:45:31.808Z,98786
2017-10-21T19:47:59.901Z,98768
2017-10-21T19:50:28.860Z,98785
2017-10-21T19:52:56.949Z,98780
2017-10-21T19:55:25.025Z,98786
2017-10-21T19:57:53.121Z,98776
2017-10-21T20:00:21.187Z,98785
2017-10-21T20:02:49.294Z,98786
2017-10-21T20:05:17.383Z,98780
2017-10-21T20:07:46.254Z,98774
2017-10-21T20:10:14.344Z,98802
2017-10-21T20:12:43.199Z,98823
2017-10-21T20:15:11.285Z,98822
2017-10-21T20:17:40.160Z,98821
2017-10-21T20:20:08.234Z,98808
2017-10-21T20:22:36.328Z,98809
2017-10-21T20:25:04.420Z,98812
2017-10-21T20:27:33.265Z,98825
2017-10-21T20:30:01.341Z,98828
2017-10-21T20:32:29.427Z,98835
2017-10-21T20:34:57.557Z,98826
2017-10-21T20:37:25.636Z,98822
2017-10-21T20:39:53.738Z,98829
2017-10-21T20:42:21.828Z,98833
2017-10-21T20:44:49.921Z,98852
2017-10-21T20:47:18.765Z,98864
2017-10-21T20:49:46.868Z,98863
2017-10-21T20:52:14.949Z,98887
2017-10-21T20:54:43.828Z,98894
2017-10-21T20:57:11.921Z,98882
2017-10-21T20:59:40.781Z,98887
2017-10-21T21:02:08.873Z,98887
2017-10-21T21:04:36.947Z,98905
2017-10-21T21:07:05.818Z,98911
2017-10-21T21:09:33.902Z,98928
2017-10-21T21:12:01.991Z,98924
2017-10-21T21:14:30.932Z,98896
2017-10-21T21:16:59.028Z,98895
2017-10-21T21:19:27.121Z,98879
2017-10-21T21:21:55.976Z,98865
2017-10-21T21:24:24.064Z,98875
2017-10-21T21:26:52.160Z,98883
2017-10-21T21:29:21.013Z,98890
2017-10-21T21:31:49.105Z,98900
2017-10-21T21:34:17.180Z,98908
2017-10-21T21:36:45.280Z,98919
2017-10-21T21:39:13.380Z,98930
2017-10-21T21:41:42.220Z,98933
2017-10-21T21:44:10.309Z,98920
2017-10-21T21:46:39.163Z,98933
2017-10-21T21:49:07.264Z,98931
2017-10-21T21:51:36.131Z,98933
2017-10-21T21:54:04.231Z,98949
2017-10-21T21:56:33.118Z,98953
2017-10-21T21:59:02.005Z,98948
2017-10-21T22:01:30.079Z,98951
2017-10-21T22:03:58.167Z,98939
2017-10-21T22:06:27.028Z,98946
2017-10-21T22:08:55.140Z,98964
2017-10-21T22:11:23.237Z,98962
2017-10-21T22:13:51.361Z,98955
2017-10-21T22:16:19.445Z,98952
2017-10-21T22:18:48.296Z,98945
2017-10-21T22:21:16.402Z,98936
2017-10-21T22:23:45.265Z,98937
2017-10-21T22:26:13.368Z,98942
2017-10-21T22:28:41.454Z,98951
2017-10-21T22:31:10.313Z,98962
2017-10-21T22:33:38.418Z,98957
2017-10-21T22:36:07.270Z,98949
2017-10-21T22:38:35.365Z,98940
2017-10-21T22:41:03.476Z,98933
2017-10-21T22:43:31.574Z,98933
2017-10-21T22:45:59.666Z,98943
2017-10-21T22:48:27.807Z,98935
2017-10-21T22:50:55.914Z,98943
2017-10-21T22:53:24.012Z,98931
2017-10-21T22:55:52.136Z,98931
2017-10-21T22:58:20.258Z,98909
2017-10-21T23:00:49.132Z,98907
2017-10-21T23:03:17.580Z,98913
2017-10-21T23:05:45.672Z,98910
2017-10-21T23:08:13.795Z,98903
2017-10-21T23:10:41.893Z,98910
2017-10-21T23:13:09.979Z,98918
2017-10-21T23:15:38.088Z,98926
2017-10-21T23:18:06.192Z,98915
2017-10-21T23:20:34.295Z,98907
2017-10-21T23:23:02.409Z,98906
2017-10-21T23:25:31.323Z,98901
2017-10-21T23:27:59.452Z,98921
2017-10-21T23:30:27.570Z,98925
2017-10-21T23:32:56.425Z,98921
2017-10-21T23:35:24.551Z,98910
2017-10-21T23:37:53.262Z,98899
2017-10-21T23:40:21.376Z,98899
2017-10-21T23:42:50.235Z,98873
2017-10-21T23:45:18.338Z,98875
2017-10-21T23:47:47.205Z,98879
2017-10-21T23:50:15.304Z,98890
2017-10-21T23:52:43.383Z,98907
2017-10-21T23:55:12.240Z,98906
2017-10-21T23:57:40.339Z,98894
